sensor_id;sensor_type;location;lat;lon;timestamp;temperature;humidity
37806;DHT22;25082;50.870;0.022;2023-04-08T00:01:58;17.90;62.30
37806;DHT22;25082;50.870;0.022;2023-04-08T00:04:24;17.90;62.20
37806;DHT22;25082;50.870;0.022;2023-04-08T00:06:50;17.90;62.20
37806;DHT22;25082;50.870;0.022;2023-04-08T00:09:16;17.90;62.10
37806;DHT22;25082;50.870;0.022;2023-04-08T00:11:41;17.90;62.10
37806;DHT22;25082;50.870;0.022;2023-04-08T00:14:07;17.90;62.10
37806;DHT22;25082;50.870;0.022;2023-04-08T00:16:33;17.80;62.00
37806;DHT22;25082;50.870;0.022;2023-04-08T00:18:59;17.80;62.00
37806;DHT22;25082;50.870;0.022;2023-04-08T00:21:25;17.80;61.90
37806;DHT22;25082;50.870;0.022;2023-04-08T00:23:51;17.80;62.00
37806;DHT22;25082;50.870;0.022;2023-04-08T00:26:17;17.80;61.80
37806;DHT22;25082;50.870;0.022;2023-04-08T00:28:43;17.80;61.80
37806;DHT22;25082;50.870;0.022;2023-04-08T00:31:09;17.80;61.80
37806;DHT22;25082;50.870;0.022;2023-04-08T00:33:35;17.80;61.80
37806;DHT22;25082;50.870;0.022;2023-04-08T00:36:01;17.80;61.70
37806;DHT22;25082;50.870;0.022;2023-04-08T00:38:27;17.80;61.70
37806;DHT22;25082;50.870;0.022;2023-04-08T00:40:53;17.70;61.70
37806;DHT22;25082;50.870;0.022;2023-04-08T00:43:19;17.70;61.60
37806;DHT22;25082;50.870;0.022;2023-04-08T00:45:46;17.70;61.60
37806;DHT22;25082;50.870;0.022;2023-04-08T00:48:12;17.70;61.50
37806;DHT22;25082;50.870;0.022;2023-04-08T00:50:38;17.70;61.50
37806;DHT22;25082;50.870;0.022;2023-04-08T00:53:04;17.70;61.50
37806;DHT22;25082;50.870;0.022;2023-04-08T00:55:30;17.70;61.50
37806;DHT22;25082;50.870;0.022;2023-04-08T00:57:56;17.70;61.50
37806;DHT22;25082;50.870;0.022;2023-04-08T01:00:22;17.70;61.50
37806;DHT22;25082;50.870;0.022;2023-04-08T01:08:28;17.60;61.40
37806;DHT22;25082;50.870;0.022;2023-04-08T01:11:00;17.60;61.40
37806;DHT22;25082;50.870;0.022;2023-04-08T01:13:29;17.60;61.30
37806;DHT22;25082;50.870;0.022;2023-04-08T01:15:55;17.60;61.30
37806;DHT22;25082;50.870;0.022;2023-04-08T01:18:22;17.60;61.30
37806;DHT22;25082;50.870;0.022;2023-04-08T01:20:49;17.60;61.40
37806;DHT22;25082;50.870;0.022;2023-04-08T01:23:52;17.60;61.30
37806;DHT22;25082;50.870;0.022;2023-04-08T01:26:24;17.60;61.30
37806;DHT22;25082;50.870;0.022;2023-04-08T01:28:53;17.60;61.30
37806;DHT22;25082;50.870;0.022;2023-04-08T01:31:21;17.60;61.20
37806;DHT22;25082;50.870;0.022;2023-04-08T01:33:48;17.50;61.20
37806;DHT22;25082;50.870;0.022;2023-04-08T01:36:16;17.60;61.20
37806;DHT22;25082;50.870;0.022;2023-04-08T01:38:42;17.50;61.20
37806;DHT22;25082;50.870;0.022;2023-04-08T01:41:09;17.50;61.10
37806;DHT22;25082;50.870;0.022;2023-04-08T01:43:37;17.50;61.10
37806;DHT22;25082;50.870;0.022;2023-04-08T01:46:04;17.50;61.10
37806;DHT22;25082;50.870;0.022;2023-04-08T01:48:30;17.50;61.10
37806;DHT22;25082;50.870;0.022;2023-04-08T01:50:57;17.50;61.10
37806;DHT22;25082;50.870;0.022;2023-04-08T01:53:24;17.50;61.00
37806;DHT22;25082;50.870;0.022;2023-04-08T01:55:57;17.50;61.00
37806;DHT22;25082;50.870;0.022;2023-04-08T01:58:27;17.50;61.00
37806;DHT22;25082;50.870;0.022;2023-04-08T02:00:57;17.50;61.00
37806;DHT22;25082;50.870;0.022;2023-04-08T02:03:24;17.50;61.00
37806;DHT22;25082;50.870;0.022;2023-04-08T02:05:50;17.40;60.90
37806;DHT22;25082;50.870;0.022;2023-04-08T02:08:15;17.40;60.90
37806;DHT22;25082;50.870;0.022;2023-04-08T02:10:41;17.40;60.90
37806;DHT22;25082;50.870;0.022;2023-04-08T02:13:09;17.40;60.90
37806;DHT22;25082;50.870;0.022;2023-04-08T02:15:40;17.40;60.90
37806;DHT22;25082;50.870;0.022;2023-04-08T02:18:14;17.40;60.80
37806;DHT22;25082;50.870;0.022;2023-04-08T02:20:51;17.40;60.80
37806;DHT22;25082;50.870;0.022;2023-04-08T02:23:24;17.40;60.80
37806;DHT22;25082;50.870;0.022;2023-04-08T02:25:52;17.40;60.70
37806;DHT22;25082;50.870;0.022;2023-04-08T02:28:20;17.40;60.70
37806;DHT22;25082;50.870;0.022;2023-04-08T02:30:49;17.40;60.60
37806;DHT22;25082;50.870;0.022;2023-04-08T02:33:18;17.30;60.60
37806;DHT22;25082;50.870;0.022;2023-04-08T02:35:44;17.30;60.50
37806;DHT22;25082;50.870;0.022;2023-04-08T02:38:11;17.30;60.50
37806;DHT22;25082;50.870;0.022;2023-04-08T02:40:37;17.30;60.50
37806;DHT22;25082;50.870;0.022;2023-04-08T02:43:03;17.30;60.50
37806;DHT22;25082;50.870;0.022;2023-04-08T02:45:37;17.30;60.50
37806;DHT22;25082;50.870;0.022;2023-04-08T02:48:03;17.30;60.40
37806;DHT22;25082;50.870;0.022;2023-04-08T02:50:30;17.30;60.50
37806;DHT22;25082;50.870;0.022;2023-04-08T02:52:56;17.20;60.40
37806;DHT22;25082;50.870;0.022;2023-04-08T02:55:21;17.20;60.40
37806;DHT22;25082;50.870;0.022;2023-04-08T02:57:47;17.20;60.40
37806;DHT22;25082;50.870;0.022;2023-04-08T03:00:14;17.20;60.40
37806;DHT22;25082;50.870;0.022;2023-04-08T03:02:40;17.20;60.90
37806;DHT22;25082;50.870;0.022;2023-04-08T03:05:06;17.20;60.30
37806;DHT22;25082;50.870;0.022;2023-04-08T03:07:32;17.20;60.30
37806;DHT22;25082;50.870;0.022;2023-04-08T03:09:58;17.20;60.30
37806;DHT22;25082;50.870;0.022;2023-04-08T03:12:24;17.20;60.40
37806;DHT22;25082;50.870;0.022;2023-04-08T03:14:52;17.20;60.30
37806;DHT22;25082;50.870;0.022;2023-04-08T03:17:18;17.20;60.30
37806;DHT22;25082;50.870;0.022;2023-04-08T03:19:44;17.20;60.30
37806;DHT22;25082;50.870;0.022;2023-04-08T03:22:10;17.10;60.20
37806;DHT22;25082;50.870;0.022;2023-04-08T03:24:36;17.10;60.20
37806;DHT22;25082;50.870;0.022;2023-04-08T03:27:02;17.10;60.20
37806;DHT22;25082;50.870;0.022;2023-04-08T03:29:28;17.10;60.20
37806;DHT22;25082;50.870;0.022;2023-04-08T03:31:54;17.10;60.10
37806;DHT22;25082;50.870;0.022;2023-04-08T03:34:19;17.10;60.20
37806;DHT22;25082;50.870;0.022;2023-04-08T03:36:45;17.10;60.10
37806;DHT22;25082;50.870;0.022;2023-04-08T03:39:12;17.10;60.10
37806;DHT22;25082;50.870;0.022;2023-04-08T03:41:38;17.10;60.10
37806;DHT22;25082;50.870;0.022;2023-04-08T03:44:04;17.10;60.10
37806;DHT22;25082;50.870;0.022;2023-04-08T03:46:29;17.10;60.30
37806;DHT22;25082;50.870;0.022;2023-04-08T03:48:55;17.00;60.40
37806;DHT22;25082;50.870;0.022;2023-04-08T03:51:21;17.00;60.80
37806;DHT22;25082;50.870;0.022;2023-04-08T03:53:46;17.00;60.20
37806;DHT22;25082;50.870;0.022;2023-04-08T03:56:13;17.00;60.20
37806;DHT22;25082;50.870;0.022;2023-04-08T03:58:39;17.00;60.10
37806;DHT22;25082;50.870;0.022;2023-04-08T04:01:05;17.00;60.10
37806;DHT22;25082;50.870;0.022;2023-04-08T04:03:31;17.00;60.00
37806;DHT22;25082;50.870;0.022;2023-04-08T04:05:56;17.00;60.00
37806;DHT22;25082;50.870;0.022;2023-04-08T04:08:22;17.00;60.00
37806;DHT22;25082;50.870;0.022;2023-04-08T04:10:48;17.00;60.00
37806;DHT22;25082;50.870;0.022;2023-04-08T04:13:14;17.00;59.90
37806;DHT22;25082;50.870;0.022;2023-04-08T04:15:40;16.90;59.80
37806;DHT22;25082;50.870;0.022;2023-04-08T04:18:08;17.00;59.80
37806;DHT22;25082;50.870;0.022;2023-04-08T04:20:34;16.90;59.80
37806;DHT22;25082;50.870;0.022;2023-04-08T04:23:00;16.90;59.80
37806;DHT22;25082;50.870;0.022;2023-04-08T04:25:26;17.00;59.90
37806;DHT22;25082;50.870;0.022;2023-04-08T04:27:52;16.90;59.80
37806;DHT22;25082;50.870;0.022;2023-04-08T04:30:17;16.90;59.80
37806;DHT22;25082;50.870;0.022;2023-04-08T04:32:45;16.90;59.80
37806;DHT22;25082;50.870;0.022;2023-04-08T04:35:11;16.90;59.80
37806;DHT22;25082;50.870;0.022;2023-04-08T04:37:37;16.90;59.80
37806;DHT22;25082;50.870;0.022;2023-04-08T04:40:04;16.90;59.80
37806;DHT22;25082;50.870;0.022;2023-04-08T04:42:30;16.90;59.70
37806;DHT22;25082;50.870;0.022;2023-04-08T04:44:57;16.90;59.80
37806;DHT22;25082;50.870;0.022;2023-04-08T04:47:23;16.80;59.70
37806;DHT22;25082;50.870;0.022;2023-04-08T04:49:49;16.80;59.60
37806;DHT22;25082;50.870;0.022;2023-04-08T04:52:15;16.80;59.60
37806;DHT22;25082;50.870;0.022;2023-04-08T04:54:41;16.80;59.70
37806;DHT22;25082;50.870;0.022;2023-04-08T04:57:07;16.80;59.70
37806;DHT22;25082;50.870;0.022;2023-04-08T04:59:32;16.80;59.60
37806;DHT22;25082;50.870;0.022;2023-04-08T05:01:58;16.80;59.60
37806;DHT22;25082;50.870;0.022;2023-04-08T05:04:24;16.80;59.60
37806;DHT22;25082;50.870;0.022;2023-04-08T05:06:50;16.80;59.50
37806;DHT22;25082;50.870;0.022;2023-04-08T05:09:16;16.70;59.50
37806;DHT22;25082;50.870;0.022;2023-04-08T05:11:42;16.80;59.60
37806;DHT22;25082;50.870;0.022;2023-04-08T05:14:08;16.80;59.50
37806;DHT22;25082;50.870;0.022;2023-04-08T05:16:34;16.80;59.50
37806;DHT22;25082;50.870;0.022;2023-04-08T05:19:00;16.70;59.50
37806;DHT22;25082;50.870;0.022;2023-04-08T05:21:26;16.70;59.40
37806;DHT22;25082;50.870;0.022;2023-04-08T05:23:52;16.70;59.40
37806;DHT22;25082;50.870;0.022;2023-04-08T05:26:22;16.70;59.50
37806;DHT22;25082;50.870;0.022;2023-04-08T05:28:49;16.70;59.40
37806;DHT22;25082;50.870;0.022;2023-04-08T05:31:16;16.70;59.40
37806;DHT22;25082;50.870;0.022;2023-04-08T05:33:42;16.70;59.40
37806;DHT22;25082;50.870;0.022;2023-04-08T05:36:09;16.70;59.40
37806;DHT22;25082;50.870;0.022;2023-04-08T05:38:35;16.70;59.40
37806;DHT22;25082;50.870;0.022;2023-04-08T05:41:01;16.70;59.40
37806;DHT22;25082;50.870;0.022;2023-04-08T05:43:26;16.70;59.40
37806;DHT22;25082;50.870;0.022;2023-04-08T05:45:52;16.70;59.40
37806;DHT22;25082;50.870;0.022;2023-04-08T05:48:18;16.70;59.40
37806;DHT22;25082;50.870;0.022;2023-04-08T05:50:43;16.60;59.30
37806;DHT22;25082;50.870;0.022;2023-04-08T05:53:10;16.60;59.30
37806;DHT22;25082;50.870;0.022;2023-04-08T05:55:35;16.60;59.20
37806;DHT22;25082;50.870;0.022;2023-04-08T05:58:01;16.60;59.30
37806;DHT22;25082;50.870;0.022;2023-04-08T06:00:27;16.60;59.30
37806;DHT22;25082;50.870;0.022;2023-04-08T06:02:53;16.60;59.30
37806;DHT22;25082;50.870;0.022;2023-04-08T06:05:18;16.60;59.30
37806;DHT22;25082;50.870;0.022;2023-04-08T06:07:44;16.60;59.30
37806;DHT22;25082;50.870;0.022;2023-04-08T06:10:10;16.60;59.30
37806;DHT22;25082;50.870;0.022;2023-04-08T06:12:36;16.60;59.20
37806;DHT22;25082;50.870;0.022;2023-04-08T06:15:06;16.60;59.30
37806;DHT22;25082;50.870;0.022;2023-04-08T06:17:34;16.50;59.30
37806;DHT22;25082;50.870;0.022;2023-04-08T06:20:00;16.50;59.20
37806;DHT22;25082;50.870;0.022;2023-04-08T06:22:26;16.50;59.20
37806;DHT22;25082;50.870;0.022;2023-04-08T06:24:52;16.50;59.20
37806;DHT22;25082;50.870;0.022;2023-04-08T06:27:17;16.50;59.20
37806;DHT22;25082;50.870;0.022;2023-04-08T06:29:43;16.50;59.40
37806;DHT22;25082;50.870;0.022;2023-04-08T06:32:10;16.50;59.50
37806;DHT22;25082;50.870;0.022;2023-04-08T06:34:35;16.60;59.50
37806;DHT22;25082;50.870;0.022;2023-04-08T06:37:01;16.60;59.40
37806;DHT22;25082;50.870;0.022;2023-04-08T06:39:27;16.60;59.40
37806;DHT22;25082;50.870;0.022;2023-04-08T06:41:52;16.60;59.30
37806;DHT22;25082;50.870;0.022;2023-04-08T06:44:19;16.60;59.20
37806;DHT22;25082;50.870;0.022;2023-04-08T06:46:47;16.60;59.20
37806;DHT22;25082;50.870;0.022;2023-04-08T06:49:13;16.60;59.20
37806;DHT22;25082;50.870;0.022;2023-04-08T06:51:38;16.60;59.20
37806;DHT22;25082;50.870;0.022;2023-04-08T06:54:04;16.60;59.10
37806;DHT22;25082;50.870;0.022;2023-04-08T06:56:30;16.60;59.10
37806;DHT22;25082;50.870;0.022;2023-04-08T06:58:55;16.60;59.10
37806;DHT22;25082;50.870;0.022;2023-04-08T07:01:21;16.60;59.10
37806;DHT22;25082;50.870;0.022;2023-04-08T07:03:47;16.60;59.10
37806;DHT22;25082;50.870;0.022;2023-04-08T07:06:12;16.70;59.10
37806;DHT22;25082;50.870;0.022;2023-04-08T07:08:38;16.60;59.10
37806;DHT22;25082;50.870;0.022;2023-04-08T07:11:04;16.60;59.00
37806;DHT22;25082;50.870;0.022;2023-04-08T07:13:30;16.60;59.00
37806;DHT22;25082;50.870;0.022;2023-04-08T07:15:55;16.60;59.00
37806;DHT22;25082;50.870;0.022;2023-04-08T07:18:21;16.70;59.10
37806;DHT22;25082;50.870;0.022;2023-04-08T07:20:52;16.70;59.00
37806;DHT22;25082;50.870;0.022;2023-04-08T07:23:19;16.70;59.00
37806;DHT22;25082;50.870;0.022;2023-04-08T07:25:45;16.70;59.50
37806;DHT22;25082;50.870;0.022;2023-04-08T07:28:11;16.70;59.00
37806;DHT22;25082;50.870;0.022;2023-04-08T07:30:37;16.80;59.00
37806;DHT22;25082;50.870;0.022;2023-04-08T07:33:03;16.70;59.00
37806;DHT22;25082;50.870;0.022;2023-04-08T07:35:29;16.80;59.10
37806;DHT22;25082;50.870;0.022;2023-04-08T07:37:56;16.80;59.10
37806;DHT22;25082;50.870;0.022;2023-04-08T07:40:22;16.80;59.10
37806;DHT22;25082;50.870;0.022;2023-04-08T07:42:48;16.80;59.20
37806;DHT22;25082;50.870;0.022;2023-04-08T07:45:13;16.90;59.20
37806;DHT22;25082;50.870;0.022;2023-04-08T07:47:39;16.90;59.30
37806;DHT22;25082;50.870;0.022;2023-04-08T07:50:06;16.90;59.30
37806;DHT22;25082;50.870;0.022;2023-04-08T07:52:33;16.90;59.30
37806;DHT22;25082;50.870;0.022;2023-04-08T07:54:58;16.90;59.50
37806;DHT22;25082;50.870;0.022;2023-04-08T07:57:25;16.90;59.70
37806;DHT22;25082;50.870;0.022;2023-04-08T07:59:51;17.00;59.80
37806;DHT22;25082;50.870;0.022;2023-04-08T08:02:17;17.00;59.80
37806;DHT22;25082;50.870;0.022;2023-04-08T08:04:43;17.00;59.80
37806;DHT22;25082;50.870;0.022;2023-04-08T08:07:09;17.00;59.80
37806;DHT22;25082;50.870;0.022;2023-04-08T08:09:34;17.00;59.80
37806;DHT22;25082;50.870;0.022;2023-04-08T08:12:00;17.00;59.80
37806;DHT22;25082;50.870;0.022;2023-04-08T08:14:26;17.00;59.80
37806;DHT22;25082;50.870;0.022;2023-04-08T08:16:52;17.10;59.90
37806;DHT22;25082;50.870;0.022;2023-04-08T08:19:19;17.10;59.90
37806;DHT22;25082;50.870;0.022;2023-04-08T08:21:45;17.10;59.90
37806;DHT22;25082;50.870;0.022;2023-04-08T08:24:11;17.10;60.00
37806;DHT22;25082;50.870;0.022;2023-04-08T08:26:37;17.10;60.00
37806;DHT22;25082;50.870;0.022;2023-04-08T08:29:03;17.20;60.10
37806;DHT22;25082;50.870;0.022;2023-04-08T08:31:29;17.20;60.10
37806;DHT22;25082;50.870;0.022;2023-04-08T08:33:55;17.20;60.10
37806;DHT22;25082;50.870;0.022;2023-04-08T08:36:21;17.30;60.20
37806;DHT22;25082;50.870;0.022;2023-04-08T08:38:47;17.30;60.30
37806;DHT22;25082;50.870;0.022;2023-04-08T08:41:12;17.30;60.30
37806;DHT22;25082;50.870;0.022;2023-04-08T08:43:38;17.40;60.40
37806;DHT22;25082;50.870;0.022;2023-04-08T08:46:09;17.40;60.70
37806;DHT22;25082;50.870;0.022;2023-04-08T08:48:36;17.40;60.90
37806;DHT22;25082;50.870;0.022;2023-04-08T08:51:08;17.40;61.20
37806;DHT22;25082;50.870;0.022;2023-04-08T08:53:34;17.40;61.60
37806;DHT22;25082;50.870;0.022;2023-04-08T08:55:59;17.50;61.80
37806;DHT22;25082;50.870;0.022;2023-04-08T08:58:28;17.50;62.00
37806;DHT22;25082;50.870;0.022;2023-04-08T09:00:54;17.50;62.10
37806;DHT22;25082;50.870;0.022;2023-04-08T09:03:26;17.50;62.20
37806;DHT22;25082;50.870;0.022;2023-04-08T09:05:53;17.50;62.30
37806;DHT22;25082;50.870;0.022;2023-04-08T09:10:54;17.50;62.50
37806;DHT22;25082;50.870;0.022;2023-04-08T09:13:24;17.50;62.40
37806;DHT22;25082;50.870;0.022;2023-04-08T09:16:01;17.50;62.40
37806;DHT22;25082;50.870;0.022;2023-04-08T09:18:30;17.60;62.40
37806;DHT22;25082;50.870;0.022;2023-04-08T09:20:59;17.60;62.50
37806;DHT22;25082;50.870;0.022;2023-04-08T09:23:37;17.60;62.50
37806;DHT22;25082;50.870;0.022;2023-04-08T09:26:14;17.60;62.80
37806;DHT22;25082;50.870;0.022;2023-04-08T09:28:42;17.60;63.00
37806;DHT22;25082;50.870;0.022;2023-04-08T09:31:18;17.70;63.10
37806;DHT22;25082;50.870;0.022;2023-04-08T09:33:46;17.70;63.20
37806;DHT22;25082;50.870;0.022;2023-04-08T09:36:13;17.70;63.10
37806;DHT22;25082;50.870;0.022;2023-04-08T09:38:39;17.80;63.20
37806;DHT22;25082;50.870;0.022;2023-04-08T09:41:06;17.70;63.10
37806;DHT22;25082;50.870;0.022;2023-04-08T09:43:37;17.80;63.20
37806;DHT22;25082;50.870;0.022;2023-04-08T09:46:07;17.80;63.20
37806;DHT22;25082;50.870;0.022;2023-04-08T09:48:39;17.80;63.20
37806;DHT22;25082;50.870;0.022;2023-04-08T09:51:06;17.80;63.20
37806;DHT22;25082;50.870;0.022;2023-04-08T09:53:37;17.90;63.30
37806;DHT22;25082;50.870;0.022;2023-04-08T09:56:11;17.90;63.30
37806;DHT22;25082;50.870;0.022;2023-04-08T09:58:41;17.90;63.30
37806;DHT22;25082;50.870;0.022;2023-04-08T10:01:13;17.90;63.20
37806;DHT22;25082;50.870;0.022;2023-04-08T10:03:39;17.90;63.20
37806;DHT22;25082;50.870;0.022;2023-04-08T10:06:10;17.90;63.80
37806;DHT22;25082;50.870;0.022;2023-04-08T10:08:36;17.90;63.30
37806;DHT22;25082;50.870;0.022;2023-04-08T10:11:03;18.00;63.40
37806;DHT22;25082;50.870;0.022;2023-04-08T10:13:29;18.00;63.30
37806;DHT22;25082;50.870;0.022;2023-04-08T10:16:21;18.00;63.30
37806;DHT22;25082;50.870;0.022;2023-04-08T10:18:50;18.00;63.30
37806;DHT22;25082;50.870;0.022;2023-04-08T10:21:39;18.00;63.30
37806;DHT22;25082;50.870;0.022;2023-04-08T10:24:12;18.00;63.40
37806;DHT22;25082;50.870;0.022;2023-04-08T10:26:39;18.00;63.50
37806;DHT22;25082;50.870;0.022;2023-04-08T10:31:48;18.00;63.40
37806;DHT22;25082;50.870;0.022;2023-04-08T10:34:24;18.00;63.50
37806;DHT22;25082;50.870;0.022;2023-04-08T10:36:51;18.10;63.60
37806;DHT22;25082;50.870;0.022;2023-04-08T10:39:18;18.10;63.80
37806;DHT22;25082;50.870;0.022;2023-04-08T10:41:45;18.10;63.60
37806;DHT22;25082;50.870;0.022;2023-04-08T10:44:18;18.10;63.60
37806;DHT22;25082;50.870;0.022;2023-04-08T10:46:45;18.10;63.60
37806;DHT22;25082;50.870;0.022;2023-04-08T10:49:12;18.10;63.50
37806;DHT22;25082;50.870;0.022;2023-04-08T10:51:38;18.10;63.50
37806;DHT22;25082;50.870;0.022;2023-04-08T10:54:07;18.10;63.50
37806;DHT22;25082;50.870;0.022;2023-04-08T10:56:35;18.10;64.10
37806;DHT22;25082;50.870;0.022;2023-04-08T10:59:01;18.10;63.50
37806;DHT22;25082;50.870;0.022;2023-04-08T11:01:37;18.10;64.50
37806;DHT22;25082;50.870;0.022;2023-04-08T11:04:16;18.20;63.80
37806;DHT22;25082;50.870;0.022;2023-04-08T11:06:46;18.20;63.70
37806;DHT22;25082;50.870;0.022;2023-04-08T11:09:13;18.20;63.70
37806;DHT22;25082;50.870;0.022;2023-04-08T11:11:43;18.30;63.80
37806;DHT22;25082;50.870;0.022;2023-04-08T11:14:09;18.30;64.00
37806;DHT22;25082;50.870;0.022;2023-04-08T11:16:39;18.30;64.30
37806;DHT22;25082;50.870;0.022;2023-04-08T11:19:05;18.30;64.70
37806;DHT22;25082;50.870;0.022;2023-04-08T11:21:34;18.40;64.90
37806;DHT22;25082;50.870;0.022;2023-04-08T11:24:00;18.40;64.80
37806;DHT22;25082;50.870;0.022;2023-04-08T11:26:30;18.40;65.10
37806;DHT22;25082;50.870;0.022;2023-04-08T11:28:56;18.50;65.00
37806;DHT22;25082;50.870;0.022;2023-04-08T11:31:23;18.50;65.00
37806;DHT22;25082;50.870;0.022;2023-04-08T11:33:51;18.50;64.90
37806;DHT22;25082;50.870;0.022;2023-04-08T11:36:17;18.50;64.80
37806;DHT22;25082;50.870;0.022;2023-04-08T11:38:43;18.50;64.70
37806;DHT22;25082;50.870;0.022;2023-04-08T11:41:09;18.50;64.50
37806;DHT22;25082;50.870;0.022;2023-04-08T11:43:36;18.50;65.50
37806;DHT22;25082;50.870;0.022;2023-04-08T11:46:11;18.60;67.30
37806;DHT22;25082;50.870;0.022;2023-04-08T11:48:38;18.60;69.10
37806;DHT22;25082;50.870;0.022;2023-04-08T11:51:07;18.60;69.70
37806;DHT22;25082;50.870;0.022;2023-04-08T11:53:34;18.60;70.90
37806;DHT22;25082;50.870;0.022;2023-04-08T11:56:19;18.60;68.20
37806;DHT22;25082;50.870;0.022;2023-04-08T11:58:45;18.60;66.80
37806;DHT22;25082;50.870;0.022;2023-04-08T12:01:12;18.60;66.30
37806;DHT22;25082;50.870;0.022;2023-04-08T12:03:38;18.60;66.20
37806;DHT22;25082;50.870;0.022;2023-04-08T12:06:04;18.60;66.20
37806;DHT22;25082;50.870;0.022;2023-04-08T12:08:31;18.60;66.10
37806;DHT22;25082;50.870;0.022;2023-04-08T12:10:57;18.60;66.00
37806;DHT22;25082;50.870;0.022;2023-04-08T12:13:23;18.60;66.00
37806;DHT22;25082;50.870;0.022;2023-04-08T12:15:49;18.60;65.80
37806;DHT22;25082;50.870;0.022;2023-04-08T12:18:14;18.60;65.80
37806;DHT22;25082;50.870;0.022;2023-04-08T12:20:40;18.70;65.90
37806;DHT22;25082;50.870;0.022;2023-04-08T12:23:06;18.70;65.70
37806;DHT22;25082;50.870;0.022;2023-04-08T12:25:32;18.60;65.50
37806;DHT22;25082;50.870;0.022;2023-04-08T12:27:58;18.60;64.90
37806;DHT22;25082;50.870;0.022;2023-04-08T12:30:23;18.60;63.70
37806;DHT22;25082;50.870;0.022;2023-04-08T12:32:49;18.60;63.80
37806;DHT22;25082;50.870;0.022;2023-04-08T12:35:15;18.60;63.50
37806;DHT22;25082;50.870;0.022;2023-04-08T12:37:41;18.60;63.40
37806;DHT22;25082;50.870;0.022;2023-04-08T12:40:07;18.60;63.50
37806;DHT22;25082;50.870;0.022;2023-04-08T12:42:33;18.60;63.60
37806;DHT22;25082;50.870;0.022;2023-04-08T12:44:59;18.60;63.90
37806;DHT22;25082;50.870;0.022;2023-04-08T12:47:25;18.60;63.90
37806;DHT22;25082;50.870;0.022;2023-04-08T12:49:51;18.60;63.90
37806;DHT22;25082;50.870;0.022;2023-04-08T12:52:16;18.60;64.00
37806;DHT22;25082;50.870;0.022;2023-04-08T12:54:43;18.70;63.80
37806;DHT22;25082;50.870;0.022;2023-04-08T12:57:09;18.70;63.70
37806;DHT22;25082;50.870;0.022;2023-04-08T12:59:34;18.70;63.80
37806;DHT22;25082;50.870;0.022;2023-04-08T13:02:02;18.70;63.80
37806;DHT22;25082;50.870;0.022;2023-04-08T13:04:28;18.70;63.70
37806;DHT22;25082;50.870;0.022;2023-04-08T13:06:53;18.80;63.70
37806;DHT22;25082;50.870;0.022;2023-04-08T13:09:19;18.80;63.60
37806;DHT22;25082;50.870;0.022;2023-04-08T13:11:45;18.80;63.40
37806;DHT22;25082;50.870;0.022;2023-04-08T13:14:11;18.90;63.40
37806;DHT22;25082;50.870;0.022;2023-04-08T13:16:40;18.90;63.50
37806;DHT22;25082;50.870;0.022;2023-04-08T13:19:06;18.90;63.60
37806;DHT22;25082;50.870;0.022;2023-04-08T13:21:32;18.90;63.70
37806;DHT22;25082;50.870;0.022;2023-04-08T13:23:57;18.90;63.80
37806;DHT22;25082;50.870;0.022;2023-04-08T13:26:23;18.90;63.90
37806;DHT22;25082;50.870;0.022;2023-04-08T13:28:49;18.90;62.00
37806;DHT22;25082;50.870;0.022;2023-04-08T13:31:17;18.80;60.00
37806;DHT22;25082;50.870;0.022;2023-04-08T13:33:42;18.70;58.80
37806;DHT22;25082;50.870;0.022;2023-04-08T13:36:08;18.60;58.30
37806;DHT22;25082;50.870;0.022;2023-04-08T13:38:34;18.50;58.60
37806;DHT22;25082;50.870;0.022;2023-04-08T13:41:00;18.50;59.20
37806;DHT22;25082;50.870;0.022;2023-04-08T13:43:27;18.50;59.30
37806;DHT22;25082;50.870;0.022;2023-04-08T13:45:53;18.60;59.90
37806;DHT22;25082;50.870;0.022;2023-04-08T13:48:18;18.60;60.10
37806;DHT22;25082;50.870;0.022;2023-04-08T13:50:44;18.70;60.40
37806;DHT22;25082;50.870;0.022;2023-04-08T13:53:11;18.70;60.70
37806;DHT22;25082;50.870;0.022;2023-04-08T13:55:36;18.70;60.90
37806;DHT22;25082;50.870;0.022;2023-04-08T13:58:02;18.80;61.20
37806;DHT22;25082;50.870;0.022;2023-04-08T14:00:28;18.70;61.50
37806;DHT22;25082;50.870;0.022;2023-04-08T14:02:54;18.80;61.50
37806;DHT22;25082;50.870;0.022;2023-04-08T14:05:19;18.80;61.60
37806;DHT22;25082;50.870;0.022;2023-04-08T14:07:45;18.80;61.70
37806;DHT22;25082;50.870;0.022;2023-04-08T14:10:11;18.80;61.20
37806;DHT22;25082;50.870;0.022;2023-04-08T14:12:38;18.70;58.80
37806;DHT22;25082;50.870;0.022;2023-04-08T14:15:05;18.60;58.50
37806;DHT22;25082;50.870;0.022;2023-04-08T14:17:31;18.60;58.90
37806;DHT22;25082;50.870;0.022;2023-04-08T14:19:57;18.50;59.10
37806;DHT22;25082;50.870;0.022;2023-04-08T14:22:23;18.50;59.30
37806;DHT22;25082;50.870;0.022;2023-04-08T14:24:49;18.50;58.00
37806;DHT22;25082;50.870;0.022;2023-04-08T14:27:15;18.40;57.50
37806;DHT22;25082;50.870;0.022;2023-04-08T14:29:41;18.40;57.50
37806;DHT22;25082;50.870;0.022;2023-04-08T14:32:06;18.40;57.50
37806;DHT22;25082;50.870;0.022;2023-04-08T14:34:33;18.30;57.60
37806;DHT22;25082;50.870;0.022;2023-04-08T14:36:58;18.40;56.90
37806;DHT22;25082;50.870;0.022;2023-04-08T14:39:24;18.30;56.50
37806;DHT22;25082;50.870;0.022;2023-04-08T14:41:50;18.30;56.80
37806;DHT22;25082;50.870;0.022;2023-04-08T14:44:16;18.30;55.90
37806;DHT22;25082;50.870;0.022;2023-04-08T14:46:41;18.30;56.70
37806;DHT22;25082;50.870;0.022;2023-04-08T14:49:07;18.30;57.40
37806;DHT22;25082;50.870;0.022;2023-04-08T14:51:33;18.40;57.90
37806;DHT22;25082;50.870;0.022;2023-04-08T14:54:01;18.40;58.50
37806;DHT22;25082;50.870;0.022;2023-04-08T14:56:27;18.40;58.70
37806;DHT22;25082;50.870;0.022;2023-04-08T14:58:53;18.50;59.10
37806;DHT22;25082;50.870;0.022;2023-04-08T15:01:18;18.50;59.40
37806;DHT22;25082;50.870;0.022;2023-04-08T15:03:44;18.50;59.50
37806;DHT22;25082;50.870;0.022;2023-04-08T15:06:10;18.60;59.70
37806;DHT22;25082;50.870;0.022;2023-04-08T15:08:41;18.50;59.70
37806;DHT22;25082;50.870;0.022;2023-04-08T15:11:07;18.60;60.40
37806;DHT22;25082;50.870;0.022;2023-04-08T15:13:33;18.60;59.80
37806;DHT22;25082;50.870;0.022;2023-04-08T15:16:00;18.60;59.80
37806;DHT22;25082;50.870;0.022;2023-04-08T15:18:26;18.60;59.20
37806;DHT22;25082;50.870;0.022;2023-04-08T15:20:52;18.60;59.70
37806;DHT22;25082;50.870;0.022;2023-04-08T15:23:18;18.60;59.60
37806;DHT22;25082;50.870;0.022;2023-04-08T15:25:43;18.70;59.60
37806;DHT22;25082;50.870;0.022;2023-04-08T15:28:09;18.70;59.50
37806;DHT22;25082;50.870;0.022;2023-04-08T15:30:35;18.70;59.30
37806;DHT22;25082;50.870;0.022;2023-04-08T15:33:02;18.80;59.40
37806;DHT22;25082;50.870;0.022;2023-04-08T15:35:28;18.80;59.40
37806;DHT22;25082;50.870;0.022;2023-04-08T15:37:54;18.80;59.40
37806;DHT22;25082;50.870;0.022;2023-04-08T15:40:20;18.80;59.40